DKH2073 ZSPD-ZHCC
Flight info
| Callsign | DKH2073 |
|---|---|
| Flight time | 1h 29m |
| Altitude | 27600 |
| Route | SASAN R343 ESBAG W545 DOGVI W135 NOBEM V64 TUTKI V78 ISNEB V104 AVNOD W596 UNTEL |
| Aircraft | A320/M-SDE2E3FGILRWXY/LB2 |
Departure
| Time | 2026-05-06 13:23 |
|---|---|
| Airport | Shanghai Pudong International Airport (ZSPD) |
Arrival
| Time | 2026-05-06 14:53 |
|---|---|
| Airport | Zhengzhou Xinzheng International Airport (ZHCC) |
| Time | Latitude | Longitude | Altitude | Speed | Heading |
|---|---|---|---|---|---|
| 2026-05-06 12:44 | 31.14972 | 121.80872 | 25 ft | 0 kts | 252° |
| 2026-05-06 13:07 | 31.14974 | 121.80879 | 24 ft | 2 kts | 251° |
| 2026-05-06 13:07 | 31.14980 | 121.80900 | 24 ft | 3 kts | 248° |
| 2026-05-06 13:07 | 31.14992 | 121.80928 | 24 ft | 3 kts | 238° |
| 2026-05-06 13:08 | 31.14999 | 121.80941 | 24 ft | 3 kts | 229° |
| 2026-05-06 13:08 | 31.15013 | 121.80956 | 24 ft | 3 kts | 194° |
| 2026-05-06 13:08 | 31.15025 | 121.80956 | 24 ft | 1 kts | 162° |
| 2026-05-06 13:08 | 31.15028 | 121.80955 | 24 ft | 0 kts | 162° |
| 2026-05-06 13:11 | 31.15022 | 121.80958 | 24 ft | 2 kts | 162° |
| 2026-05-06 13:12 | 31.15005 | 121.80964 | 24 ft | 3 kts | 162° |
| 2026-05-06 13:12 | 31.14968 | 121.80978 | 24 ft | 10 kts | 162° |
| 2026-05-06 13:12 | 31.14881 | 121.81011 | 24 ft | 14 kts | 162° |
| 2026-05-06 13:12 | 31.14785 | 121.81047 | 24 ft | 15 kts | 162° |
| 2026-05-06 13:13 | 31.14689 | 121.81084 | 24 ft | 15 kts | 161° |
| 2026-05-06 13:13 | 31.14589 | 121.81121 | 24 ft | 15 kts | 163° |
| 2026-05-06 13:13 | 31.14503 | 121.81153 | 24 ft | 10 kts | 161° |
| 2026-05-06 13:13 | 31.14440 | 121.81138 | 24 ft | 10 kts | 237° |
| 2026-05-06 13:14 | 31.14417 | 121.81065 | 24 ft | 10 kts | 252° |
| 2026-05-06 13:14 | 31.14392 | 121.80975 | 24 ft | 14 kts | 252° |
| 2026-05-06 13:14 | 31.14357 | 121.80852 | 24 ft | 18 kts | 251° |
| 2026-05-06 13:14 | 31.14314 | 121.80705 | 24 ft | 19 kts | 251° |
| 2026-05-06 13:15 | 31.14274 | 121.80553 | 24 ft | 20 kts | 252° |
| 2026-05-06 13:15 | 31.14231 | 121.80400 | 24 ft | 20 kts | 252° |
| 2026-05-06 13:15 | 31.14188 | 121.80244 | 24 ft | 20 kts | 251° |
| 2026-05-06 13:15 | 31.14144 | 121.80086 | 24 ft | 20 kts | 252° |
| 2026-05-06 13:16 | 31.14103 | 121.79937 | 24 ft | 19 kts | 251° |
| 2026-05-06 13:16 | 31.14067 | 121.79807 | 24 ft | 12 kts | 252° |
| 2026-05-06 13:16 | 31.14055 | 121.79764 | 24 ft | 1 kts | 253° |
| 2026-05-06 13:16 | 31.14053 | 121.79756 | 24 ft | 2 kts | 256° |
| 2026-05-06 13:17 | 31.14046 | 121.79720 | 24 ft | 7 kts | 257° |
| 2026-05-06 13:17 | 31.14037 | 121.79645 | 24 ft | 12 kts | 276° |
| 2026-05-06 13:17 | 31.14102 | 121.79575 | 24 ft | 16 kts | 342° |
| 2026-05-06 13:17 | 31.14223 | 121.79530 | 24 ft | 21 kts | 342° |
| 2026-05-06 13:18 | 31.14374 | 121.79472 | 24 ft | 24 kts | 342° |
| 2026-05-06 13:18 | 31.14532 | 121.79413 | 24 ft | 24 kts | 343° |
| 2026-05-06 13:18 | 31.14692 | 121.79355 | 24 ft | 24 kts | 341° |
| 2026-05-06 13:18 | 31.14840 | 121.79297 | 24 ft | 22 kts | 342° |
| 2026-05-06 13:19 | 31.14988 | 121.79242 | 24 ft | 22 kts | 342° |
| 2026-05-06 13:19 | 31.15136 | 121.79186 | 24 ft | 22 kts | 342° |
| 2026-05-06 13:19 | 31.15286 | 121.79129 | 24 ft | 23 kts | 342° |
| 2026-05-06 13:19 | 31.15438 | 121.79073 | 24 ft | 23 kts | 342° |
| 2026-05-06 13:20 | 31.15582 | 121.79017 | 24 ft | 22 kts | 341° |
| 2026-05-06 13:20 | 31.15727 | 121.78962 | 24 ft | 22 kts | 343° |
| 2026-05-06 13:20 | 31.15872 | 121.78909 | 24 ft | 21 kts | 342° |
| 2026-05-06 13:20 | 31.15990 | 121.78863 | 24 ft | 15 kts | 342° |
| 2026-05-06 13:21 | 31.16089 | 121.78826 | 24 ft | 14 kts | 341° |
| 2026-05-06 13:21 | 31.16150 | 121.78777 | 24 ft | 10 kts | 282° |
| 2026-05-06 13:21 | 31.16145 | 121.78738 | 24 ft | 4 kts | 253° |
| 2026-05-06 13:21 | 31.16141 | 121.78720 | 24 ft | 0 kts | 253° |
| 2026-05-06 13:22 | 31.16140 | 121.78719 | 24 ft | 1 kts | 253° |
| 2026-05-06 13:22 | 31.16131 | 121.78685 | 24 ft | 8 kts | 253° |
| 2026-05-06 13:22 | 31.16092 | 121.78619 | 24 ft | 11 kts | 197° |
| 2026-05-06 13:23 | 31.15998 | 121.78642 | 24 ft | 27 kts | 161° |
| 2026-05-06 13:23 | 31.15540 | 121.78817 | 25 ft | 110 kts | 160° |
| 2026-05-06 13:23 | 31.14611 | 121.79182 | 117 ft | 160 kts | 159° |
| 2026-05-06 13:23 | 31.13538 | 121.79619 | 829 ft | 165 kts | 160° |
| 2026-05-06 13:24 | 31.12432 | 121.80010 | 1716 ft | 167 kts | 163° |
| 2026-05-06 13:24 | 31.11277 | 121.80376 | 2377 ft | 178 kts | 164° |
| 2026-05-06 13:24 | 31.10029 | 121.80802 | 2749 ft | 197 kts | 163° |
| 2026-05-06 13:24 | 31.08648 | 121.81283 | 3172 ft | 216 kts | 164° |
| 2026-05-06 13:25 | 31.07152 | 121.81787 | 3690 ft | 232 kts | 164° |
| 2026-05-06 13:25 | 31.05537 | 121.82328 | 4236 ft | 248 kts | 164° |
| 2026-05-06 13:25 | 31.03840 | 121.82894 | 4925 ft | 257 kts | 165° |
| 2026-05-06 13:25 | 31.02083 | 121.83357 | 5695 ft | 261 kts | 175° |
| 2026-05-06 13:26 | 31.00286 | 121.83109 | 6319 ft | 264 kts | 201° |
| 2026-05-06 13:26 | 30.98794 | 121.81906 | 6547 ft | 264 kts | 229° |
| 2026-05-06 13:26 | 30.97960 | 121.79975 | 6446 ft | 271 kts | 253° |
| 2026-05-06 13:26 | 30.97591 | 121.77833 | 6220 ft | 270 kts | 257° |
| 2026-05-06 13:27 | 30.97200 | 121.75697 | 5974 ft | 268 kts | 253° |
| 2026-05-06 13:27 | 30.96671 | 121.73626 | 5647 ft | 265 kts | 250° |
| 2026-05-06 13:27 | 30.96264 | 121.71549 | 5244 ft | 265 kts | 263° |
| 2026-05-06 13:27 | 30.96449 | 121.69395 | 4937 ft | 270 kts | 280° |
| 2026-05-06 13:28 | 30.96933 | 121.67267 | 4923 ft | 271 kts | 283° |
| 2026-05-06 13:28 | 30.97412 | 121.65147 | 5150 ft | 271 kts | 281° |
| 2026-05-06 13:28 | 30.97815 | 121.63000 | 5749 ft | 273 kts | 279° |
| 2026-05-06 13:28 | 30.98189 | 121.60811 | 6457 ft | 280 kts | 279° |
| 2026-05-06 13:29 | 30.98579 | 121.58604 | 7247 ft | 282 kts | 280° |
| 2026-05-06 13:29 | 30.98993 | 121.56361 | 8012 ft | 285 kts | 280° |
| 2026-05-06 13:29 | 30.99416 | 121.54094 | 8742 ft | 288 kts | 281° |
| 2026-05-06 13:29 | 30.99840 | 121.51807 | 9447 ft | 291 kts | 281° |
| 2026-05-06 13:30 | 31.00270 | 121.49484 | 10173 ft | 293 kts | 281° |
| 2026-05-06 13:30 | 31.00703 | 121.47125 | 10706 ft | 304 kts | 281° |
| 2026-05-06 13:30 | 31.01153 | 121.44664 | 11009 ft | 320 kts | 281° |
| 2026-05-06 13:30 | 31.01631 | 121.42055 | 11330 ft | 336 kts | 281° |
| 2026-05-06 13:31 | 31.02130 | 121.39336 | 11624 ft | 351 kts | 281° |
| 2026-05-06 13:31 | 31.02652 | 121.36496 | 11921 ft | 365 kts | 281° |
| 2026-05-06 13:31 | 31.03188 | 121.33561 | 12280 ft | 375 kts | 281° |
| 2026-05-06 13:31 | 31.03734 | 121.30572 | 12830 ft | 378 kts | 281° |
| 2026-05-06 13:32 | 31.04283 | 121.27574 | 13421 ft | 380 kts | 281° |
| 2026-05-06 13:32 | 31.04836 | 121.24548 | 14013 ft | 382 kts | 281° |
| 2026-05-06 13:32 | 31.05389 | 121.21518 | 14623 ft | 382 kts | 281° |
| 2026-05-06 13:32 | 31.06103 | 121.18540 | 15225 ft | 383 kts | 290° |
| 2026-05-06 13:33 | 31.07417 | 121.15836 | 15783 ft | 386 kts | 306° |
| 2026-05-06 13:33 | 31.09390 | 121.13714 | 16335 ft | 391 kts | 324° |
| 2026-05-06 13:33 | 31.11875 | 121.12389 | 16844 ft | 398 kts | 341° |
| 2026-05-06 13:33 | 31.14641 | 121.11946 | 17330 ft | 404 kts | 354° |
| 2026-05-06 13:34 | 31.17462 | 121.11866 | 17790 ft | 408 kts | 356° |
| 2026-05-06 13:34 | 31.20312 | 121.11824 | 18243 ft | 410 kts | 355° |
| 2026-05-06 13:34 | 31.23165 | 121.11736 | 18688 ft | 412 kts | 354° |
| 2026-05-06 13:34 | 31.26040 | 121.11579 | 19112 ft | 414 kts | 353° |
| 2026-05-06 13:35 | 31.28921 | 121.11382 | 19521 ft | 416 kts | 353° |
| 2026-05-06 13:35 | 31.31817 | 121.11180 | 19919 ft | 419 kts | 353° |
| 2026-05-06 13:35 | 31.34742 | 121.11010 | 20324 ft | 422 kts | 355° |
| 2026-05-06 13:35 | 31.37656 | 121.11102 | 20704 ft | 426 kts | 359° |
| 2026-05-06 13:36 | 31.40663 | 121.11311 | 21074 ft | 429 kts | 360° |
| 2026-05-06 13:36 | 31.43607 | 121.11426 | 21411 ft | 429 kts | 353° |
| 2026-05-06 13:36 | 31.46529 | 121.10880 | 21758 ft | 423 kts | 339° |
| 2026-05-06 13:36 | 31.49255 | 121.09633 | 22110 ft | 421 kts | 332° |
| 2026-05-06 13:37 | 31.51908 | 121.08159 | 22446 ft | 422 kts | 330° |
| 2026-05-06 13:37 | 31.54542 | 121.06634 | 22783 ft | 424 kts | 329° |
| 2026-05-06 13:37 | 31.57206 | 121.05127 | 23111 ft | 426 kts | 330° |
| 2026-05-06 13:37 | 31.59916 | 121.03671 | 23428 ft | 429 kts | 332° |
| 2026-05-06 13:38 | 31.62653 | 121.02252 | 23746 ft | 431 kts | 332° |
| 2026-05-06 13:38 | 31.65396 | 121.00833 | 24052 ft | 433 kts | 332° |
| 2026-05-06 13:38 | 31.68154 | 120.99381 | 24352 ft | 434 kts | 331° |
| 2026-05-06 13:38 | 31.70897 | 120.97911 | 24729 ft | 433 kts | 331° |
| 2026-05-06 13:39 | 31.73629 | 120.96439 | 25135 ft | 432 kts | 331° |
| 2026-05-06 13:39 | 31.76370 | 120.94967 | 25549 ft | 431 kts | 331° |
| 2026-05-06 13:39 | 31.79093 | 120.93511 | 25940 ft | 430 kts | 331° |
| 2026-05-06 13:39 | 31.81818 | 120.92057 | 26348 ft | 429 kts | 331° |
| 2026-05-06 13:40 | 31.84533 | 120.90609 | 26750 ft | 428 kts | 331° |
| 2026-05-06 13:40 | 31.87236 | 120.89164 | 27151 ft | 427 kts | 331° |
| 2026-05-06 13:40 | 31.89948 | 120.87712 | 27416 ft | 430 kts | 331° |
| 2026-05-06 13:40 | 31.92685 | 120.86240 | 27508 ft | 436 kts | 331° |
| 2026-05-06 13:41 | 31.95473 | 120.84740 | 27530 ft | 444 kts | 331° |
| 2026-05-06 13:41 | 31.98275 | 120.83238 | 27607 ft | 440 kts | 331° |
| 2026-05-06 13:41 | 32.01059 | 120.81744 | 27604 ft | 440 kts | 330° |
| 2026-05-06 13:41 | 32.03842 | 120.80250 | 27600 ft | 440 kts | 330° |
| 2026-05-06 13:42 | 32.06632 | 120.78748 | 27595 ft | 440 kts | 330° |
| 2026-05-06 13:42 | 32.09411 | 120.77231 | 27585 ft | 439 kts | 329° |
| 2026-05-06 13:42 | 32.12006 | 120.75383 | 27574 ft | 433 kts | 319° |
| 2026-05-06 13:42 | 32.14206 | 120.73010 | 27569 ft | 427 kts | 307° |
| 2026-05-06 13:43 | 32.15873 | 120.70206 | 27569 ft | 422 kts | 296° |
| 2026-05-06 13:43 | 32.17019 | 120.66992 | 27570 ft | 418 kts | 285° |
| 2026-05-06 13:43 | 32.17583 | 120.63688 | 27575 ft | 416 kts | 275° |
| 2026-05-06 13:43 | 32.17847 | 120.60251 | 27585 ft | 416 kts | 274° |
| 2026-05-06 13:44 | 32.18061 | 120.56884 | 27578 ft | 416 kts | 273° |
| 2026-05-06 13:44 | 32.18290 | 120.53486 | 27586 ft | 416 kts | 274° |
| 2026-05-06 13:44 | 32.18560 | 120.50082 | 27588 ft | 416 kts | 275° |
| 2026-05-06 13:44 | 32.18860 | 120.46691 | 27584 ft | 416 kts | 275° |
| 2026-05-06 13:45 | 32.19166 | 120.43288 | 27584 ft | 416 kts | 275° |
| 2026-05-06 13:45 | 32.19735 | 120.36485 | 27579 ft | 416 kts | 274° |
| 2026-05-06 13:45 | 32.20005 | 120.33077 | 27575 ft | 416 kts | 274° |
| 2026-05-06 13:46 | 32.20273 | 120.29676 | 27574 ft | 416 kts | 274° |
| 2026-05-06 13:46 | 32.20546 | 120.26286 | 27573 ft | 416 kts | 274° |
| 2026-05-06 13:46 | 32.20828 | 120.22878 | 27558 ft | 416 kts | 275° |
| 2026-05-06 13:46 | 32.21111 | 120.19480 | 27541 ft | 416 kts | 275° |
| 2026-05-06 13:47 | 32.21391 | 120.16078 | 27519 ft | 416 kts | 274° |
| 2026-05-06 13:47 | 32.21664 | 120.12675 | 27500 ft | 416 kts | 274° |
| 2026-05-06 13:47 | 32.21935 | 120.09267 | 27487 ft | 417 kts | 274° |
| 2026-05-06 13:47 | 32.22209 | 120.05865 | 27492 ft | 417 kts | 274° |
| 2026-05-06 13:48 | 32.22486 | 120.02455 | 27488 ft | 417 kts | 274° |
| 2026-05-06 13:48 | 32.22763 | 119.99045 | 27483 ft | 418 kts | 274° |
| 2026-05-06 13:48 | 32.23036 | 119.95634 | 27489 ft | 418 kts | 274° |
| 2026-05-06 13:48 | 32.23306 | 119.92216 | 27504 ft | 418 kts | 274° |
| 2026-05-06 13:49 | 32.23576 | 119.88802 | 27523 ft | 418 kts | 274° |
| 2026-05-06 13:49 | 32.23847 | 119.85389 | 27541 ft | 417 kts | 274° |
| 2026-05-06 13:49 | 32.24117 | 119.81981 | 27572 ft | 417 kts | 274° |
| 2026-05-06 13:49 | 32.24347 | 119.78564 | 27562 ft | 416 kts | 271° |
| 2026-05-06 13:50 | 32.24201 | 119.75165 | 27566 ft | 416 kts | 262° |
| 2026-05-06 13:50 | 32.23536 | 119.71842 | 27555 ft | 416 kts | 254° |
| 2026-05-06 13:50 | 32.22647 | 119.68593 | 27537 ft | 417 kts | 252° |
| 2026-05-06 13:50 | 32.21701 | 119.65358 | 27521 ft | 417 kts | 252° |
| 2026-05-06 13:51 | 32.20767 | 119.62120 | 27519 ft | 416 kts | 252° |
| 2026-05-06 13:51 | 32.19870 | 119.58870 | 27514 ft | 416 kts | 253° |
| 2026-05-06 13:51 | 32.19007 | 119.55611 | 27499 ft | 416 kts | 253° |
| 2026-05-06 13:51 | 32.18157 | 119.52359 | 27488 ft | 416 kts | 253° |
| 2026-05-06 13:52 | 32.17291 | 119.49100 | 27500 ft | 415 kts | 253° |
| 2026-05-06 13:52 | 32.16421 | 119.45861 | 27501 ft | 415 kts | 253° |
| 2026-05-06 13:52 | 32.15552 | 119.42609 | 27480 ft | 415 kts | 253° |
| 2026-05-06 13:52 | 32.14693 | 119.39362 | 27462 ft | 415 kts | 253° |
| 2026-05-06 13:53 | 32.13837 | 119.36111 | 27464 ft | 415 kts | 253° |
| 2026-05-06 13:53 | 32.12976 | 119.32859 | 27464 ft | 415 kts | 253° |
| 2026-05-06 13:53 | 32.12123 | 119.29658 | 27464 ft | 415 kts | 253° |
| 2026-05-06 13:53 | 32.11259 | 119.26420 | 27488 ft | 414 kts | 253° |
| 2026-05-06 13:54 | 32.10394 | 119.23187 | 27510 ft | 413 kts | 253° |
| 2026-05-06 13:54 | 32.09530 | 119.19956 | 27497 ft | 414 kts | 253° |
| 2026-05-06 13:54 | 32.08681 | 119.16781 | 27477 ft | 414 kts | 253° |
| 2026-05-06 13:54 | 32.07819 | 119.13553 | 27469 ft | 414 kts | 253° |
| 2026-05-06 13:55 | 32.06950 | 119.10308 | 27467 ft | 414 kts | 253° |
| 2026-05-06 13:55 | 32.06081 | 119.07075 | 27461 ft | 414 kts | 253° |
| 2026-05-06 13:55 | 32.05210 | 119.03834 | 27465 ft | 414 kts | 253° |
| 2026-05-06 13:55 | 32.04342 | 119.00601 | 27464 ft | 414 kts | 253° |
| 2026-05-06 13:56 | 32.03754 | 118.98419 | 27463 ft | 414 kts | 253° |
| 2026-05-06 13:56 | 32.02881 | 118.95183 | 27462 ft | 414 kts | 253° |
| 2026-05-06 13:56 | 32.01727 | 118.90906 | 27463 ft | 414 kts | 253° |
| 2026-05-06 13:56 | 32.01150 | 118.88766 | 27469 ft | 414 kts | 253° |
| 2026-05-06 13:57 | 31.99983 | 118.84447 | 27473 ft | 414 kts | 253° |
| 2026-05-06 13:57 | 31.99401 | 118.82300 | 27472 ft | 414 kts | 253° |
| 2026-05-06 13:57 | 31.98375 | 118.79132 | 27459 ft | 415 kts | 248° |
| 2026-05-06 13:57 | 31.97205 | 118.76020 | 27461 ft | 416 kts | 247° |
| 2026-05-06 13:58 | 31.95994 | 118.72926 | 27465 ft | 416 kts | 246° |
| 2026-05-06 13:58 | 31.94773 | 118.69827 | 27461 ft | 417 kts | 246° |
| 2026-05-06 13:58 | 31.93566 | 118.66723 | 27460 ft | 418 kts | 247° |
| 2026-05-06 13:58 | 31.92370 | 118.63604 | 27481 ft | 417 kts | 247° |
| 2026-05-06 13:59 | 31.91184 | 118.60489 | 27508 ft | 417 kts | 247° |
| 2026-05-06 13:59 | 31.89993 | 118.57371 | 27532 ft | 417 kts | 247° |
| 2026-05-06 13:59 | 31.88801 | 118.54261 | 27544 ft | 417 kts | 247° |
| 2026-05-06 13:59 | 31.87604 | 118.51154 | 27545 ft | 417 kts | 247° |
| 2026-05-06 14:00 | 31.86406 | 118.48057 | 27545 ft | 417 kts | 247° |
| 2026-05-06 14:00 | 31.85212 | 118.44955 | 27546 ft | 416 kts | 247° |
| 2026-05-06 14:00 | 31.84020 | 118.41851 | 27545 ft | 416 kts | 247° |
| 2026-05-06 14:00 | 31.82825 | 118.38748 | 27528 ft | 416 kts | 247° |
| 2026-05-06 14:01 | 31.81628 | 118.35660 | 27508 ft | 416 kts | 247° |
| 2026-05-06 14:01 | 31.80449 | 118.32549 | 27497 ft | 415 kts | 249° |
| 2026-05-06 14:01 | 31.79606 | 118.29318 | 27478 ft | 414 kts | 258° |
| 2026-05-06 14:01 | 31.79284 | 118.26000 | 27461 ft | 414 kts | 267° |
| 2026-05-06 14:02 | 31.79229 | 118.22574 | 27457 ft | 414 kts | 269° |
| 2026-05-06 14:02 | 31.79236 | 118.19232 | 27450 ft | 415 kts | 269° |
| 2026-05-06 14:02 | 31.79234 | 118.15842 | 27453 ft | 415 kts | 269° |
| 2026-05-06 14:02 | 31.79186 | 118.12450 | 27450 ft | 415 kts | 268° |
| 2026-05-06 14:03 | 31.79097 | 118.09019 | 27470 ft | 414 kts | 267° |
| 2026-05-06 14:03 | 31.79007 | 118.05684 | 27475 ft | 415 kts | 268° |
| 2026-05-06 14:03 | 31.78939 | 118.02296 | 27468 ft | 415 kts | 268° |
| 2026-05-06 14:03 | 31.78894 | 117.98905 | 27481 ft | 415 kts | 268° |
| 2026-05-06 14:04 | 31.78854 | 117.95522 | 27488 ft | 415 kts | 268° |
| 2026-05-06 14:04 | 31.78807 | 117.92127 | 27482 ft | 415 kts | 268° |
| 2026-05-06 14:04 | 31.78747 | 117.88741 | 27504 ft | 414 kts | 268° |
| 2026-05-06 14:04 | 31.78681 | 117.85362 | 27529 ft | 413 kts | 268° |
| 2026-05-06 14:05 | 31.78615 | 117.81988 | 27514 ft | 414 kts | 268° |
| 2026-05-06 14:05 | 31.78552 | 117.78603 | 27491 ft | 414 kts | 268° |
| 2026-05-06 14:05 | 31.78492 | 117.75223 | 27476 ft | 414 kts | 268° |
| 2026-05-06 14:05 | 31.78434 | 117.71845 | 27455 ft | 414 kts | 268° |
| 2026-05-06 14:06 | 31.78372 | 117.68463 | 27437 ft | 414 kts | 268° |
| 2026-05-06 14:06 | 31.78299 | 117.65089 | 27441 ft | 414 kts | 268° |
| 2026-05-06 14:06 | 31.78219 | 117.61702 | 27431 ft | 414 kts | 268° |
| 2026-05-06 14:06 | 31.78143 | 117.58323 | 27435 ft | 414 kts | 268° |
| 2026-05-06 14:07 | 31.78065 | 117.54937 | 27431 ft | 414 kts | 268° |
| 2026-05-06 14:07 | 31.77990 | 117.51551 | 27440 ft | 414 kts | 268° |
| 2026-05-06 14:07 | 31.77913 | 117.48165 | 27452 ft | 414 kts | 268° |
| 2026-05-06 14:07 | 31.77836 | 117.44784 | 27445 ft | 415 kts | 268° |
| 2026-05-06 14:08 | 31.77757 | 117.41392 | 27429 ft | 415 kts | 268° |
| 2026-05-06 14:08 | 31.77674 | 117.37999 | 27436 ft | 415 kts | 268° |
| 2026-05-06 14:08 | 31.77683 | 117.34606 | 27446 ft | 416 kts | 273° |
| 2026-05-06 14:08 | 31.78145 | 117.31299 | 27436 ft | 418 kts | 283° |
| 2026-05-06 14:09 | 31.79212 | 117.28108 | 27434 ft | 422 kts | 295° |
| 2026-05-06 14:09 | 31.80866 | 117.25241 | 27436 ft | 427 kts | 306° |
| 2026-05-06 14:09 | 31.82819 | 117.22602 | 27433 ft | 429 kts | 308° |
| 2026-05-06 14:09 | 31.84821 | 117.19994 | 27442 ft | 429 kts | 308° |
| 2026-05-06 14:10 | 31.86798 | 117.17375 | 27468 ft | 428 kts | 307° |
| 2026-05-06 14:10 | 31.88730 | 117.14722 | 27481 ft | 427 kts | 306° |
| 2026-05-06 14:10 | 31.90637 | 117.12029 | 27475 ft | 427 kts | 306° |
| 2026-05-06 14:10 | 31.92535 | 117.09335 | 27467 ft | 428 kts | 306° |
| 2026-05-06 14:11 | 31.94444 | 117.06658 | 27453 ft | 428 kts | 306° |
| 2026-05-06 14:11 | 31.96380 | 117.03980 | 27461 ft | 428 kts | 306° |
| 2026-05-06 14:11 | 31.98317 | 117.01313 | 27471 ft | 428 kts | 306° |
| 2026-05-06 14:11 | 32.00251 | 116.98643 | 27467 ft | 428 kts | 306° |
| 2026-05-06 14:12 | 32.02178 | 116.95975 | 27473 ft | 428 kts | 306° |
| 2026-05-06 14:12 | 32.04108 | 116.93302 | 27494 ft | 427 kts | 306° |
| 2026-05-06 14:12 | 32.06027 | 116.90639 | 27521 ft | 426 kts | 306° |
| 2026-05-06 14:12 | 32.07944 | 116.87976 | 27517 ft | 426 kts | 306° |
| 2026-05-06 14:13 | 32.09859 | 116.85312 | 27516 ft | 426 kts | 306° |
| 2026-05-06 14:13 | 32.11774 | 116.82648 | 27503 ft | 426 kts | 306° |
| 2026-05-06 14:13 | 32.13694 | 116.79981 | 27482 ft | 426 kts | 306° |
| 2026-05-06 14:13 | 32.15614 | 116.77314 | 27460 ft | 426 kts | 306° |
| 2026-05-06 14:14 | 32.17531 | 116.74646 | 27441 ft | 426 kts | 306° |
| 2026-05-06 14:14 | 32.19445 | 116.71976 | 27429 ft | 426 kts | 306° |
| 2026-05-06 14:14 | 32.21333 | 116.69296 | 27432 ft | 425 kts | 305° |
| 2026-05-06 14:14 | 32.23198 | 116.66593 | 27434 ft | 425 kts | 305° |
| 2026-05-06 14:15 | 32.25059 | 116.63874 | 27429 ft | 425 kts | 305° |
| 2026-05-06 14:15 | 32.26926 | 116.61162 | 27428 ft | 425 kts | 305° |
| 2026-05-06 14:15 | 32.28796 | 116.58467 | 27429 ft | 426 kts | 305° |
| 2026-05-06 14:15 | 32.30680 | 116.55761 | 27436 ft | 426 kts | 305° |
| 2026-05-06 14:16 | 32.32566 | 116.53049 | 27429 ft | 426 kts | 305° |
| 2026-05-06 14:16 | 32.34444 | 116.50342 | 27449 ft | 426 kts | 305° |
| 2026-05-06 14:16 | 32.36320 | 116.47629 | 27450 ft | 426 kts | 305° |
| 2026-05-06 14:16 | 32.38169 | 116.44946 | 27464 ft | 426 kts | 305° |
| 2026-05-06 14:17 | 32.40067 | 116.42191 | 27466 ft | 426 kts | 305° |
| 2026-05-06 14:17 | 32.41938 | 116.39482 | 27471 ft | 426 kts | 305° |
| 2026-05-06 14:17 | 32.43818 | 116.36765 | 27476 ft | 426 kts | 305° |
| 2026-05-06 14:17 | 32.45695 | 116.34045 | 27477 ft | 426 kts | 305° |
| 2026-05-06 14:18 | 32.47561 | 116.31334 | 27493 ft | 426 kts | 305° |
| 2026-05-06 14:18 | 32.49427 | 116.28616 | 27516 ft | 425 kts | 305° |
| 2026-05-06 14:18 | 32.51297 | 116.25896 | 27510 ft | 425 kts | 305° |
| 2026-05-06 14:18 | 32.53140 | 116.23213 | 27488 ft | 425 kts | 305° |
| 2026-05-06 14:19 | 32.55009 | 116.20496 | 27466 ft | 425 kts | 305° |
| 2026-05-06 14:19 | 32.56882 | 116.17787 | 27450 ft | 426 kts | 306° |
| 2026-05-06 14:19 | 32.58787 | 116.15098 | 27436 ft | 426 kts | 306° |
| 2026-05-06 14:19 | 32.60698 | 116.12411 | 27432 ft | 426 kts | 306° |
| 2026-05-06 14:20 | 32.62604 | 116.09734 | 27443 ft | 425 kts | 306° |
| 2026-05-06 14:20 | 32.64514 | 116.07049 | 27429 ft | 425 kts | 306° |
| 2026-05-06 14:20 | 32.66414 | 116.04373 | 27435 ft | 425 kts | 306° |
| 2026-05-06 14:20 | 32.68317 | 116.01689 | 27432 ft | 425 kts | 306° |
| 2026-05-06 14:21 | 32.70222 | 115.98996 | 27431 ft | 425 kts | 306° |
| 2026-05-06 14:21 | 32.72122 | 115.96310 | 27432 ft | 425 kts | 306° |
| 2026-05-06 14:21 | 32.74023 | 115.93620 | 27433 ft | 425 kts | 306° |
| 2026-05-06 14:21 | 32.75924 | 115.90931 | 27436 ft | 425 kts | 306° |
| 2026-05-06 14:22 | 32.77823 | 115.88246 | 27459 ft | 425 kts | 306° |
| 2026-05-06 14:22 | 32.79725 | 115.85553 | 27498 ft | 424 kts | 306° |
| 2026-05-06 14:22 | 32.81622 | 115.82862 | 27517 ft | 424 kts | 306° |
| 2026-05-06 14:22 | 32.83513 | 115.80179 | 27506 ft | 424 kts | 306° |
| 2026-05-06 14:23 | 32.85407 | 115.77488 | 27487 ft | 424 kts | 306° |
| 2026-05-06 14:23 | 32.87325 | 115.74817 | 27471 ft | 426 kts | 309° |
| 2026-05-06 14:23 | 32.89531 | 115.72452 | 27444 ft | 432 kts | 319° |
| 2026-05-06 14:23 | 32.92062 | 115.70495 | 27435 ft | 435 kts | 324° |
| 2026-05-06 14:24 | 32.94678 | 115.68679 | 27442 ft | 435 kts | 325° |
| 2026-05-06 14:24 | 32.97310 | 115.66904 | 27455 ft | 435 kts | 325° |
| 2026-05-06 14:24 | 32.99931 | 115.65101 | 27445 ft | 435 kts | 324° |
| 2026-05-06 14:24 | 33.02491 | 115.63276 | 27437 ft | 434 kts | 324° |
| 2026-05-06 14:25 | 33.05105 | 115.61369 | 27435 ft | 434 kts | 323° |
| 2026-05-06 14:25 | 33.07644 | 115.59514 | 27449 ft | 434 kts | 323° |
| 2026-05-06 14:25 | 33.10260 | 115.57625 | 27469 ft | 434 kts | 324° |
| 2026-05-06 14:25 | 33.12719 | 115.55667 | 27456 ft | 430 kts | 317° |
| 2026-05-06 14:26 | 33.14880 | 115.53242 | 27451 ft | 424 kts | 309° |
| 2026-05-06 14:26 | 33.16832 | 115.50612 | 27456 ft | 423 kts | 307° |
| 2026-05-06 14:26 | 33.18722 | 115.47917 | 27470 ft | 422 kts | 306° |
| 2026-05-06 14:26 | 33.20596 | 115.45226 | 27468 ft | 422 kts | 306° |
| 2026-05-06 14:27 | 33.22502 | 115.42554 | 27450 ft | 423 kts | 307° |
| 2026-05-06 14:27 | 33.24442 | 115.39909 | 27444 ft | 424 kts | 307° |
| 2026-05-06 14:27 | 33.26400 | 115.37269 | 27453 ft | 423 kts | 308° |
| 2026-05-06 14:27 | 33.28343 | 115.34633 | 27463 ft | 423 kts | 307° |
| 2026-05-06 14:28 | 33.30273 | 115.31983 | 27468 ft | 422 kts | 307° |
| 2026-05-06 14:28 | 33.32191 | 115.29330 | 27456 ft | 423 kts | 307° |
| 2026-05-06 14:28 | 33.34112 | 115.26669 | 27445 ft | 423 kts | 307° |
| 2026-05-06 14:28 | 33.36034 | 115.24017 | 27422 ft | 417 kts | 307° |
| 2026-05-06 14:29 | 33.37911 | 115.21437 | 27268 ft | 404 kts | 307° |
| 2026-05-06 14:29 | 33.39728 | 115.18941 | 26833 ft | 395 kts | 307° |
| 2026-05-06 14:29 | 33.41525 | 115.16459 | 26218 ft | 392 kts | 307° |
| 2026-05-06 14:29 | 33.43297 | 115.14005 | 25585 ft | 389 kts | 307° |
| 2026-05-06 14:30 | 33.45061 | 115.11561 | 24971 ft | 385 kts | 307° |
| 2026-05-06 14:30 | 33.46807 | 115.09140 | 24345 ft | 383 kts | 307° |
| 2026-05-06 14:30 | 33.48537 | 115.06740 | 23747 ft | 380 kts | 307° |
| 2026-05-06 14:30 | 33.50258 | 115.04358 | 23143 ft | 377 kts | 307° |
| 2026-05-06 14:31 | 33.51973 | 115.01985 | 22532 ft | 375 kts | 307° |
| 2026-05-06 14:31 | 33.53673 | 114.99628 | 21933 ft | 373 kts | 306° |
| 2026-05-06 14:31 | 33.55344 | 114.97309 | 21360 ft | 371 kts | 306° |
| 2026-05-06 14:31 | 33.57049 | 114.94935 | 20829 ft | 371 kts | 306° |
| 2026-05-06 14:32 | 33.58732 | 114.92594 | 20623 ft | 372 kts | 306° |
| 2026-05-06 14:32 | 33.60423 | 114.90242 | 20610 ft | 372 kts | 306° |
| 2026-05-06 14:32 | 33.62109 | 114.87894 | 20607 ft | 372 kts | 306° |
| 2026-05-06 14:32 | 33.63798 | 114.85542 | 20607 ft | 372 kts | 306° |
| 2026-05-06 14:33 | 33.65467 | 114.83215 | 20608 ft | 372 kts | 306° |
| 2026-05-06 14:33 | 33.67154 | 114.80863 | 20609 ft | 372 kts | 306° |
| 2026-05-06 14:33 | 33.68879 | 114.78563 | 20513 ft | 370 kts | 310° |
| 2026-05-06 14:33 | 33.70861 | 114.76592 | 20075 ft | 372 kts | 321° |
| 2026-05-06 14:34 | 33.73174 | 114.75137 | 19422 ft | 380 kts | 334° |
| 2026-05-06 14:34 | 33.75691 | 114.74142 | 18826 ft | 382 kts | 338° |
| 2026-05-06 14:34 | 33.78243 | 114.73255 | 18274 ft | 381 kts | 339° |
| 2026-05-06 14:34 | 33.80784 | 114.72369 | 17729 ft | 379 kts | 339° |
| 2026-05-06 14:35 | 33.83291 | 114.71439 | 17221 ft | 376 kts | 338° |
| 2026-05-06 14:35 | 33.85762 | 114.70468 | 16735 ft | 373 kts | 337° |
| 2026-05-06 14:35 | 33.88222 | 114.69484 | 16251 ft | 370 kts | 338° |
| 2026-05-06 14:35 | 33.90660 | 114.68519 | 15779 ft | 368 kts | 338° |
| 2026-05-06 14:36 | 33.93085 | 114.67573 | 15308 ft | 365 kts | 338° |
| 2026-05-06 14:36 | 33.95500 | 114.66637 | 14846 ft | 363 kts | 339° |
| 2026-05-06 14:36 | 33.97887 | 114.65717 | 14400 ft | 360 kts | 339° |
| 2026-05-06 14:36 | 34.00270 | 114.64795 | 13942 ft | 357 kts | 339° |
| 2026-05-06 14:37 | 34.02624 | 114.63881 | 13475 ft | 355 kts | 339° |
| 2026-05-06 14:37 | 34.04969 | 114.62967 | 13012 ft | 353 kts | 339° |
| 2026-05-06 14:37 | 34.07295 | 114.62057 | 12748 ft | 351 kts | 340° |
| 2026-05-06 14:37 | 34.09620 | 114.61147 | 12721 ft | 351 kts | 340° |
| 2026-05-06 14:38 | 34.11931 | 114.60185 | 12717 ft | 350 kts | 334° |
| 2026-05-06 14:38 | 34.14022 | 114.58674 | 12717 ft | 366 kts | 317° |
| 2026-05-06 14:38 | 34.15671 | 114.56242 | 12713 ft | 376 kts | 296° |
| 2026-05-06 14:38 | 34.16717 | 114.53373 | 12735 ft | 380 kts | 289° |
| 2026-05-06 14:39 | 34.17657 | 114.50331 | 12733 ft | 384 kts | 288° |
| 2026-05-06 14:39 | 34.18578 | 114.47345 | 12730 ft | 384 kts | 289° |
| 2026-05-06 14:39 | 34.19568 | 114.44350 | 12729 ft | 383 kts | 290° |
| 2026-05-06 14:39 | 34.20603 | 114.41421 | 12641 ft | 373 kts | 291° |
| 2026-05-06 14:40 | 34.21623 | 114.38615 | 12471 ft | 358 kts | 291° |
| 2026-05-06 14:40 | 34.22595 | 114.35910 | 12311 ft | 344 kts | 291° |
| 2026-05-06 14:40 | 34.23513 | 114.33295 | 12166 ft | 331 kts | 290° |
| 2026-05-06 14:40 | 34.24382 | 114.30780 | 12033 ft | 319 kts | 290° |
| 2026-05-06 14:41 | 34.25219 | 114.28352 | 11907 ft | 307 kts | 290° |
| 2026-05-06 14:41 | 34.26033 | 114.26004 | 11686 ft | 299 kts | 290° |
| 2026-05-06 14:41 | 34.26833 | 114.23703 | 11336 ft | 296 kts | 290° |
| 2026-05-06 14:41 | 34.27627 | 114.21414 | 10960 ft | 294 kts | 290° |
| 2026-05-06 14:42 | 34.28411 | 114.19152 | 10605 ft | 291 kts | 290° |
| 2026-05-06 14:42 | 34.29191 | 114.16901 | 10250 ft | 288 kts | 290° |
| 2026-05-06 14:42 | 34.29962 | 114.14682 | 9845 ft | 287 kts | 290° |
| 2026-05-06 14:42 | 34.30717 | 114.12496 | 9479 ft | 284 kts | 290° |
| 2026-05-06 14:43 | 34.31485 | 114.10274 | 9102 ft | 281 kts | 289° |
| 2026-05-06 14:43 | 34.32234 | 114.08102 | 8715 ft | 278 kts | 289° |
| 2026-05-06 14:43 | 34.32973 | 114.05948 | 8314 ft | 276 kts | 289° |
| 2026-05-06 14:43 | 34.33681 | 114.03797 | 7906 ft | 274 kts | 288° |
| 2026-05-06 14:44 | 34.34141 | 114.02378 | 7634 ft | 272 kts | 288° |
| 2026-05-06 14:44 | 34.35035 | 113.99626 | 7127 ft | 272 kts | 289° |
| 2026-05-06 14:44 | 34.35757 | 113.97516 | 6914 ft | 270 kts | 290° |
| 2026-05-06 14:45 | 34.37209 | 113.93364 | 6672 ft | 266 kts | 290° |
| 2026-05-06 14:45 | 34.37915 | 113.91303 | 6242 ft | 265 kts | 289° |
| 2026-05-06 14:45 | 34.38613 | 113.89252 | 5817 ft | 263 kts | 289° |
| 2026-05-06 14:45 | 34.39307 | 113.87215 | 5407 ft | 260 kts | 290° |
| 2026-05-06 14:46 | 34.39996 | 113.85202 | 5023 ft | 259 kts | 290° |
| 2026-05-06 14:46 | 34.40685 | 113.83190 | 4911 ft | 259 kts | 291° |
| 2026-05-06 14:46 | 34.41377 | 113.81168 | 4917 ft | 259 kts | 290° |
| 2026-05-06 14:46 | 34.42061 | 113.79153 | 4867 ft | 257 kts | 290° |
| 2026-05-06 14:47 | 34.42740 | 113.77159 | 4558 ft | 254 kts | 291° |
| 2026-05-06 14:47 | 34.43414 | 113.75197 | 4146 ft | 252 kts | 291° |
| 2026-05-06 14:47 | 34.44089 | 113.73244 | 3724 ft | 250 kts | 291° |
| 2026-05-06 14:47 | 34.44750 | 113.71311 | 3315 ft | 247 kts | 292° |
| 2026-05-06 14:48 | 34.45203 | 113.70036 | 3151 ft | 241 kts | 296° |
| 2026-05-06 14:48 | 34.46214 | 113.68534 | 3026 ft | 230 kts | 321° |
| 2026-05-06 14:48 | 34.47646 | 113.67789 | 2914 ft | 222 kts | 347° |
| 2026-05-06 14:48 | 34.49163 | 113.67890 | 2731 ft | 219 kts | 6° |
| 2026-05-06 14:49 | 34.50620 | 113.68458 | 2418 ft | 221 kts | 20° |
| 2026-05-06 14:49 | 34.51975 | 113.69301 | 2246 ft | 214 kts | 24° |
| 2026-05-06 14:49 | 34.53245 | 113.70147 | 2126 ft | 203 kts | 24° |
| 2026-05-06 14:49 | 34.54464 | 113.70971 | 2017 ft | 193 kts | 27° |
| 2026-05-06 14:50 | 34.55376 | 113.72057 | 1991 ft | 179 kts | 60° |
| 2026-05-06 14:50 | 34.55715 | 113.73451 | 2053 ft | 168 kts | 76° |
| 2026-05-06 14:50 | 34.55939 | 113.74808 | 2037 ft | 162 kts | 76° |
| 2026-05-06 14:50 | 34.56145 | 113.76155 | 2027 ft | 162 kts | 76° |
| 2026-05-06 14:51 | 34.56200 | 113.77501 | 1882 ft | 161 kts | 103° |
| 2026-05-06 14:51 | 34.55741 | 113.78699 | 1608 ft | 154 kts | 116° |
| 2026-05-06 14:51 | 34.55359 | 113.79919 | 1237 ft | 156 kts | 111° |
| 2026-05-06 14:51 | 34.54942 | 113.81133 | 1027 ft | 157 kts | 114° |
| 2026-05-06 14:52 | 34.54519 | 113.82356 | 854 ft | 157 kts | 113° |
| 2026-05-06 14:52 | 34.54113 | 113.83562 | 656 ft | 156 kts | 113° |
| 2026-05-06 14:52 | 34.53701 | 113.84788 | 510 ft | 150 kts | 113° |
| 2026-05-06 14:52 | 34.53362 | 113.85772 | 509 ft | 103 kts | 112° |
| 2026-05-06 14:53 | 34.53175 | 113.86339 | 509 ft | 30 kts | 110° |
| 2026-05-06 14:53 | 34.53118 | 113.86520 | 509 ft | 23 kts | 112° |
| 2026-05-06 14:53 | 34.53040 | 113.86684 | 509 ft | 22 kts | 128° |
| 2026-05-06 14:53 | 34.52963 | 113.86776 | 509 ft | 9 kts | 139° |